Time;durP1;ratioP1;P1;durP2;ratioP2;P2;SDS_P1;SDS_P2;PMS_P1;PMS_P2;Temp;Humidity;BMP_temperature;BMP_pressure;BME280_temperature;BME280_humidity;BME280_pressure;Samples;Min_cycle;Max_cycle;Signal;HPM_P1;HPM_P2
2022/05/07 00:00:34;;;;;;;46.25;26.73;;;;;;;11.68;83.43;102314.22;5036069;28;20128;-81
2022/05/07 00:03:00;;;;;;;50.90;28.05;;;;;;;11.71;84.12;102302.13;5033877;28;20013;-80
2022/05/07 00:05:26;;;;;;;50.10;28.40;;;;;;;11.73;84.38;102300.38;5042296;28;20036;-81
2022/05/07 00:07:51;;;;;;;51.13;28.05;;;;;;;11.74;84.46;102296.06;5033246;28;20029;-81
2022/05/07 00:10:17;;;;;;;50.47;28.38;;;;;;;11.77;84.23;102293.44;5030472;28;20377;-81
2022/05/07 00:12:42;;;;;;;47.45;26.83;;;;;;;11.79;84.62;102299.50;5027851;28;20058;-81
2022/05/07 00:15:08;;;;;;;53.15;27.45;;;;;;;11.77;84.11;102298.66;5028827;28;20025;-81
2022/05/07 00:20:18;;;;;;;47.70;25.50;;;;;;;11.72;84.00;102290.00;5030154;28;20040;-81
2022/05/07 00:22:44;;;;;;;48.80;26.80;;;;;;;11.71;84.14;102293.44;5030253;28;20033;-81
2022/05/07 00:25:09;;;;;;;47.50;26.25;;;;;;;11.68;84.02;102290.84;5028342;28;20044;-81
2022/05/07 00:27:35;;;;;;;46.55;26.67;;;;;;;11.66;84.64;102288.28;5030070;28;20079;-81
2022/05/07 00:30:00;;;;;;;46.95;26.48;;;;;;;11.65;84.26;102296.09;5031916;28;20051;-81
2022/05/07 00:32:26;;;;;;;47.63;26.10;;;;;;;11.65;84.39;102285.69;5032104;28;20028;-81
2022/05/07 00:34:52;;;;;;;49.17;26.60;;;;;;;11.63;85.14;102277.91;5030325;28;20048;-81
2022/05/07 00:37:17;;;;;;;50.35;26.60;;;;;;;11.62;84.93;102286.56;5031431;28;20029;-81
2022/05/07 00:39:42;;;;;;;48.23;26.50;;;;;;;11.59;84.78;102280.53;5030707;28;20029;-80
2022/05/07 00:42:08;;;;;;;49.77;27.97;;;;;;;11.61;85.19;102284.84;5033441;28;20786;-81
2022/05/07 00:44:34;;;;;;;50.45;26.77;;;;;;;11.57;85.25;102277.94;5031460;28;20299;-81
2022/05/07 00:47:30;;;;;;;46.47;26.13;;;;;;;11.57;84.46;102283.13;5033031;28;20109;-81
2022/05/07 00:51:33;;;;;;;48.38;26.75;;;;;;;11.51;85.05;102277.09;5032263;28;20021;-81
2022/05/07 00:52:43;;;;;;;49.60;26.90;;;;;;;11.48;85.37;102276.25;5031613;28;20361;-81
2022/05/07 00:55:10;;;;;;;54.85;28.33;;;;;;;11.45;85.56;102278.88;5028482;28;20052;-81
2022/05/07 00:57:36;;;;;;;54.30;28.50;;;;;;;11.41;85.44;102276.28;5028211;28;20044;-81
2022/05/07 01:00:03;;;;;;;47.72;26.90;;;;;;;11.39;85.35;102273.69;5025906;28;20029;-81
2022/05/07 01:02:28;;;;;;;49.00;27.20;;;;;;;11.38;85.21;102276.28;5027395;28;20056;-80
2022/05/07 01:04:54;;;;;;;52.50;27.73;;;;;;;11.33;85.00;102275.44;5029516;28;20040;-81
2022/05/07 01:07:20;;;;;;;49.60;27.67;;;;;;;11.31;85.90;102274.59;5029482;28;20250;-81
2022/05/07 01:09:46;;;;;;;49.15;27.02;;;;;;;11.30;85.62;102275.47;5037773;28;20486;-81
2022/05/07 01:12:11;;;;;;;46.50;26.10;;;;;;;11.22;84.82;102264.22;5029142;28;20029;-81
2022/05/07 01:14:37;;;;;;;49.97;27.13;;;;;;;11.27;86.13;102270.25;5030441;28;20030;-81
2022/05/07 01:17:06;;;;;;;50.90;28.02;;;;;;;11.28;86.69;102266.81;5029066;28;20099;-81
2022/05/07 01:19:31;;;;;;;52.03;26.90;;;;;;;11.28;86.30;102272.84;5037680;28;20067;-81
2022/05/07 01:21:56;;;;;;;51.73;28.20;;;;;;;11.30;86.86;102267.66;5027966;28;20424;-81
2022/05/07 01:24:22;;;;;;;50.50;27.13;;;;;;;11.30;86.84;102265.94;5032971;28;20283;-81
2022/05/07 01:26:47;;;;;;;51.13;28.45;;;;;;;11.32;86.69;102269.41;5034793;28;20033;-81
2022/05/07 01:29:12;;;;;;;53.55;27.65;;;;;;;11.31;86.52;102261.63;5027978;28;20079;-81
2022/05/07 01:31:38;;;;;;;50.50;27.75;;;;;;;11.31;86.19;102259.88;5029190;28;20064;-81
2022/05/07 01:34:03;;;;;;;47.73;26.47;;;;;;;11.30;86.52;102259.88;5027867;28;20087;-81
2022/05/07 01:36:28;;;;;;;52.33;26.58;;;;;;;11.27;86.51;102257.28;5027510;28;20677;-81
2022/05/07 01:38:54;;;;;;;53.13;27.73;;;;;;;11.20;86.80;102252.97;5034570;28;20059;-81
2022/05/07 01:41:19;;;;;;;51.70;27.77;;;;;;;11.20;87.20;102258.19;5034242;28;20355;-81
2022/05/07 01:43:44;;;;;;;48.83;26.73;;;;;;;11.20;86.73;102260.78;5033128;28;20275;-81
2022/05/07 01:48:54;;;;;;;50.73;26.80;;;;;;;11.17;86.79;102250.41;5031317;28;20043;-81
2022/05/07 01:51:19;;;;;;;51.97;27.02;;;;;;;11.14;87.28;102258.19;5032442;28;20275;-81
2022/05/07 01:53:44;;;;;;;53.15;27.35;;;;;;;11.11;87.37;102259.09;5032742;28;20402;-81
2022/05/07 01:56:10;;;;;;;53.27;26.00;;;;;;;11.09;86.79;102256.50;5031215;28;20480;-81
2022/05/07 01:58:35;;;;;;;50.47;25.80;;;;;;;11.08;87.20;102257.34;5031134;28;20306;-81
2022/05/07 02:01:00;;;;;;;49.35;26.40;;;;;;;11.06;86.91;102250.44;5032361;28;20749;-81
2022/05/07 02:03:25;;;;;;;50.60;27.13;;;;;;;11.05;87.04;102254.75;5031346;28;20017;-81
2022/05/07 02:05:51;;;;;;;51.63;27.33;;;;;;;11.02;87.05;102244.41;5034428;28;20305;-80
2022/05/07 02:08:16;;;;;;;51.55;27.10;;;;;;;11.02;87.37;102243.53;5047334;28;20353;-80
2022/05/07 02:10:42;;;;;;;55.95;28.27;;;;;;;11.01;87.67;102247.00;5044644;28;20390;-81
2022/05/07 02:13:07;;;;;;;53.85;27.58;;;;;;;10.97;87.91;102240.09;5031216;28;20057;-81
2022/05/07 02:15:32;;;;;;;52.03;27.35;;;;;;;10.97;87.94;102242.69;5032939;28;20061;-82
2022/05/07 02:17:58;;;;;;;51.30;27.33;;;;;;;10.96;87.39;102240.97;5030860;28;20071;-81
2022/05/07 02:20:24;;;;;;;50.30;26.88;;;;;;;10.96;87.67;102241.84;5039410;28;20650;-81
2022/05/07 02:22:52;;;;;;;53.67;27.63;;;;;;;10.91;87.49;102229.75;5032126;28;20522;-81
2022/05/07 02:25:17;;;;;;;50.97;26.17;;;;;;;10.92;87.39;102240.09;5031772;28;20442;-81
2022/05/07 02:27:42;;;;;;;51.53;26.57;;;;;;;10.91;87.90;102232.34;5029708;28;20488;-81
2022/05/07 02:30:08;;;;;;;49.20;26.93;;;;;;;10.88;88.01;102234.94;5032097;28;20290;-81
2022/05/07 02:32:34;;;;;;;50.28;26.30;;;;;;;10.88;87.95;102232.34;5030045;28;20851;-81
2022/05/07 02:34:59;;;;;;;46.83;25.33;;;;;;;10.87;87.90;102231.47;5031626;28;20041;-81
2022/05/07 02:37:24;;;;;;;52.78;26.85;;;;;;;10.87;88.14;102230.59;5037249;28;20419;-81
2022/05/07 02:39:50;;;;;;;52.13;26.30;;;;;;;10.86;88.26;102211.59;5032092;28;20029;-81
2022/05/07 02:42:36;;;;;;;44.63;25.13;;;;;;;10.88;88.53;102217.63;5030347;28;20283;-81
2022/05/07 02:45:03;;;;;;;48.55;27.05;;;;;;;10.87;88.38;102221.09;5012630;28;20035;-81
2022/05/07 02:47:29;;;;;;;48.72;26.73;;;;;;;10.86;88.55;102221.09;5024959;28;20060;-81
2022/05/07 02:49:55;;;;;;;51.90;26.70;;;;;;;10.84;88.67;102223.72;5032170;28;20099;-81
2022/05/07 02:52:20;;;;;;;51.75;26.52;;;;;;;10.81;88.78;102220.25;5034829;28;20045;-81
2022/05/07 02:54:45;;;;;;;51.28;26.38;;;;;;;10.80;88.57;102214.19;5031424;28;20045;-81
2022/05/07 02:57:11;;;;;;;51.53;26.40;;;;;;;10.81;88.81;102217.66;5032919;28;20051;-81
2022/05/07 02:59:38;;;;;;;53.30;27.52;;;;;;;10.82;88.56;102215.06;5031598;28;20607;-81
2022/05/07 03:02:04;;;;;;;52.45;26.80;;;;;;;10.84;88.75;102215.94;5031126;28;20033;-81
2022/05/07 03:04:29;;;;;;;52.60;27.63;;;;;;;10.87;88.99;102221.09;5030539;28;20049;-81
2022/05/07 03:06:55;;;;;;;51.73;27.83;;;;;;;10.86;88.63;102213.31;5035755;28;20128;-81
2022/05/07 03:09:20;;;;;;;52.40;27.13;;;;;;;10.87;88.82;102215.91;5030576;28;20361;-81
2022/05/07 03:11:45;;;;;;;50.17;27.27;;;;;;;10.85;88.59;102212.44;5029586;28;20057;-81
2022/05/07 03:14:10;;;;;;;55.90;28.30;;;;;;;10.88;89.42;102221.97;5019616;28;20303;-81
2022/05/07 03:16:38;;;;;;;55.58;29.48;;;;;;;10.88;89.04;102219.38;5034497;28;20283;-81
2022/05/07 03:19:04;;;;;;;58.35;29.08;;;;;;;10.86;89.23;102213.31;5033038;28;20026;-82
2022/05/07 03:21:29;;;;;;;59.92;29.50;;;;;;;10.87;89.14;102220.22;5030908;28;20043;-81
2022/05/07 03:23:54;;;;;;;57.57;29.67;;;;;;;10.87;89.28;102223.69;5030456;28;20104;-81
2022/05/07 03:26:22;;;;;;;58.90;30.25;;;;;;;10.88;89.33;102220.22;5028685;28;20316;-81
2022/05/07 03:28:47;;;;;;;59.05;28.92;;;;;;;10.88;89.34;102222.81;5027439;28;20511;-82
2022/05/07 03:31:13;;;;;;;58.92;29.05;;;;;;;10.90;89.12;102222.84;5028814;28;20029;-82
2022/05/07 03:33:39;;;;;;;52.42;28.83;;;;;;;10.91;89.13;102219.38;5031076;28;20156;-82
2022/05/07 03:36:05;;;;;;;55.60;29.70;;;;;;;10.90;89.44;102220.25;5033530;28;20098;-82
2022/05/07 03:38:30;;;;;;;56.67;30.17;;;;;;;10.88;89.28;102214.19;5036656;28;20444;-82
2022/05/07 03:40:56;;;;;;;56.17;29.75;;;;;;;10.87;89.54;102217.63;5029772;28;20038;-82
2022/05/07 03:43:21;;;;;;;55.22;29.40;;;;;;;10.90;89.39;102228.88;5029305;28;20105;-82
2022/05/07 03:45:46;;;;;;;55.95;29.83;;;;;;;10.90;89.38;102231.47;5023558;28;20037;-81
2022/05/07 03:48:12;;;;;;;58.67;30.13;;;;;;;10.88;89.57;102229.75;5037691;28;20442;-82
2022/05/07 03:50:37;;;;;;;60.13;30.17;;;;;;;10.86;89.87;102216.78;5031061;28;20397;-82
2022/05/07 03:55:46;;;;;;;64.10;31.37;;;;;;;10.88;89.72;102219.38;5031727;28;20088;-82
2022/05/07 03:58:15;;;;;;;62.88;31.00;;;;;;;10.86;89.75;102227.16;5030613;28;20053;-82
2022/05/07 04:00:44;;;;;;;60.58;31.60;;;;;;;10.88;89.70;102232.34;5028657;28;20029;-82
2022/05/07 04:03:11;;;;;;;59.25;30.65;;;;;;;10.87;89.76;102231.47;5029765;28;20057;-82
2022/05/07 04:05:36;;;;;;;63.10;32.28;;;;;;;10.87;89.75;102225.41;5028875;28;20041;-82
2022/05/07 04:08:02;;;;;;;59.90;31.48;;;;;;;10.87;89.58;102228.88;5029826;28;20037;-82
2022/05/07 04:10:27;;;;;;;57.47;30.05;;;;;;;10.84;89.70;102231.50;5030538;28;20029;-82
2022/05/07 04:12:52;;;;;;;55.60;28.98;;;;;;;10.85;89.75;102233.19;5028505;28;20065;-82
2022/05/07 04:15:18;;;;;;;56.05;28.67;;;;;;;10.85;89.54;102233.19;5029677;28;20396;-82
2022/05/07 04:17:43;;;;;;;53.20;28.80;;;;;;;10.85;89.58;102235.78;5030816;28;20047;-82
2022/05/07 04:20:11;;;;;;;57.97;30.00;;;;;;;10.87;89.89;102236.66;5029128;28;20411;-82
2022/05/07 04:22:36;;;;;;;57.22;29.83;;;;;;;10.88;90.01;102234.94;5032828;28;20312;-82
2022/05/07 04:25:03;;;;;;;55.03;30.05;;;;;;;10.88;90.15;102230.59;5026091;28;20063;-82
2022/05/07 04:27:28;;;;;;;61.30;30.83;;;;;;;10.94;90.18;102238.38;5027962;28;20079;-82
2022/05/07 04:29:53;;;;;;;61.33;30.20;;;;;;;10.96;90.27;102235.78;5029037;28;20033;-82
2022/05/07 04:32:19;;;;;;;58.40;30.07;;;;;;;10.98;90.31;102242.69;5028038;28;20360;-82
2022/05/07 04:34:44;;;;;;;58.35;30.52;;;;;;;11.02;90.40;102235.75;5027540;28;20268;-82
2022/05/07 04:37:10;;;;;;;57.92;30.20;;;;;;;11.03;90.24;102234.91;5034595;28;20083;-82
2022/05/07 04:39:35;;;;;;;59.50;30.50;;;;;;;11.08;90.49;102246.97;5029089;28;20104;-82
2022/05/07 04:42:02;;;;;;;54.08;28.48;;;;;;;11.12;90.21;102250.44;5027335;28;20323;-82
2022/05/07 04:44:27;;;;;;;55.75;30.23;;;;;;;11.14;90.43;102246.09;5029696;28;20494;-82
2022/05/07 04:46:52;;;;;;;57.57;30.07;;;;;;;11.19;90.04;102251.28;5028064;28;20030;-83
2022/05/07 04:49:22;;;;;;;55.50;29.38;;;;;;;11.21;90.09;102246.94;5028612;28;20281;-82
2022/05/07 04:51:50;;;;;;;60.35;29.85;;;;;;;11.25;90.18;102246.06;5028592;28;20032;-82
2022/05/07 04:54:20;;;;;;;66.13;31.67;;;;;;;11.27;90.00;102249.50;5030662;28;20029;-82
2022/05/07 04:56:47;;;;;;;64.00;29.80;;;;;;;11.32;90.24;102258.16;5027239;28;20052;-82
2022/05/07 04:59:16;;;;;;;57.10;29.80;;;;;;;11.36;90.17;102250.34;5028939;28;20040;-83
2022/05/07 05:01:42;;;;;;;62.35;31.23;;;;;;;11.43;90.38;102245.97;5028794;28;20112;-82
2022/05/07 05:04:07;;;;;;;66.90;31.75;;;;;;;11.48;90.33;102252.00;5031953;28;20063;-82
2022/05/07 05:06:33;;;;;;;56.80;30.95;;;;;;;11.53;89.04;102258.06;5031779;28;20067;-82
2022/05/07 05:08:58;;;;;;;60.53;31.95;;;;;;;11.60;90.11;102253.69;5036570;28;20034;-82
2022/05/07 05:11:25;;;;;;;66.55;32.65;;;;;;;11.68;90.00;102264.88;5034711;28;20043;-82
2022/05/07 05:13:50;;;;;;;63.30;33.33;;;;;;;11.73;89.46;102264.00;5022004;28;20057;-83
2022/05/07 05:16:16;;;;;;;66.00;33.95;;;;;;;11.79;89.87;102266.59;5026802;28;20025;-83
2022/05/07 05:18:41;;;;;;;64.20;33.97;;;;;;;11.89;89.64;102272.59;5038122;28;20045;-82
2022/05/07 05:21:06;;;;;;;62.57;33.20;;;;;;;11.96;89.38;102271.69;5028512;28;20712;-82
2022/05/07 05:23:32;;;;;;;63.80;34.90;;;;;;;12.01;89.33;102266.47;5034638;28;20295;-82
2022/05/07 05:25:57;;;;;;;66.35;34.95;;;;;;;12.11;89.10;102273.31;5028875;28;20017;-83
2022/05/07 05:28:22;;;;;;;72.63;34.92;;;;;;;12.20;89.38;102275.84;5027051;28;20048;-83
2022/05/07 05:30:51;;;;;;;67.65;36.03;;;;;;;12.30;89.28;102274.91;5028640;28;20507;-82
2022/05/07 05:33:17;;;;;;;63.45;35.50;;;;;;;12.43;89.18;102278.25;5027391;28;20091;-82
2022/05/07 05:35:43;;;;;;;67.10;36.17;;;;;;;12.59;88.83;102277.25;5033161;28;20025;-83
2022/05/07 05:38:08;;;;;;;64.73;36.30;;;;;;;12.70;88.33;102283.22;5032802;28;20040;-83
2022/05/07 05:40:33;;;;;;;65.10;36.30;;;;;;;12.85;88.04;102287.41;5034371;28;20299;-83
2022/05/07 05:42:58;;;;;;;65.38;36.45;;;;;;;12.98;87.65;102286.41;5036777;28;20029;-83
2022/05/07 05:45:24;;;;;;;66.40;34.03;;;;;;;13.16;86.95;102290.59;5024762;28;20036;-83
2022/05/07 05:47:49;;;;;;;49.33;27.37;;;;;;;13.34;83.53;102298.19;5027319;28;20520;-83
2022/05/07 05:50:15;;;;;;;50.40;25.90;;;;;;;13.52;80.09;102294.50;5035899;28;20291;-82
2022/05/07 05:52:40;;;;;;;49.55;25.40;;;;;;;13.68;80.41;102294.28;5026812;28;20029;-83
2022/05/07 05:55:06;;;;;;;50.78;26.30;;;;;;;13.89;81.08;102294.88;5029235;28;20129;-83
2022/05/07 05:57:31;;;;;;;49.45;25.58;;;;;;;14.06;81.15;102293.75;5031036;28;20037;-83
2022/05/07 05:59:56;;;;;;;45.22;25.25;;;;;;;14.15;79.72;102301.44;5032694;28;20044;-83
2022/05/07 06:02:23;;;;;;;49.87;25.97;;;;;;;14.20;77.99;102296.13;5026116;28;20041;-83
2022/05/07 06:04:48;;;;;;;46.10;24.23;;;;;;;14.26;79.89;102297.81;5027848;28;20299;-82
2022/05/07 06:07:13;;;;;;;43.03;24.52;;;;;;;14.33;79.90;102296.84;5029464;28;20025;-82
2022/05/07 06:09:39;;;;;;;47.10;24.52;;;;;;;14.39;79.77;102295.03;5026347;28;20424;-82
2022/05/07 06:12:04;;;;;;;45.95;23.92;;;;;;;14.44;76.71;102300.16;5031551;28;20344;-82
2022/05/07 06:14:30;;;;;;;43.95;23.05;;;;;;;14.48;79.50;102294.84;5025753;28;20029;-82
2022/05/07 06:16:55;;;;;;;43.73;22.80;;;;;;;14.52;77.86;102301.75;5026244;28;20121;-82
2022/05/07 06:19:20;;;;;;;49.53;23.17;;;;;;;14.58;77.44;102300.78;5027632;28;20812;-82
2022/05/07 06:21:46;;;;;;;47.70;22.93;;;;;;;14.69;76.78;102298.84;5027874;28;20287;-82
2022/05/07 06:29:39;;;;;;;43.35;20.60;;;;;;;15.19;77.60;102307.50;5034746;28;20044;-82
2022/05/07 06:32:04;;;;;;;42.38;21.58;;;;;;;15.28;77.78;102308.19;5038853;28;20056;-83
2022/05/07 06:34:30;;;;;;;40.30;20.00;;;;;;;15.43;73.98;102309.63;5037031;28;20352;-82
2022/05/07 06:36:57;;;;;;;40.80;19.58;;;;;;;15.54;73.63;102307.69;5035697;28;20056;-82
2022/05/07 06:39:23;;;;;;;37.35;19.17;;;;;;;15.65;73.94;102304.84;5032375;28;20021;-82
2022/05/07 06:41:50;;;;;;;48.83;20.52;;;;;;;15.76;73.84;102303.72;5033108;28;20102;-82
2022/05/07 06:44:15;;;;;;;38.03;17.92;;;;;;;15.85;69.83;102302.66;5033546;28;20027;-82
2022/05/07 06:46:40;;;;;;;39.63;19.42;;;;;;;15.98;69.19;102314.56;5034108;28;20026;-82
2022/05/07 06:49:05;;;;;;;49.17;20.33;;;;;;;16.18;71.69;102301.88;5031852;28;20049;-82
2022/05/07 06:51:33;;;;;;;43.47;19.70;;;;;;;16.51;71.40;102304.59;5031964;28;20295;-81
2022/05/07 06:53:58;;;;;;;40.55;18.17;;;;;;;16.89;71.84;102303.63;5035167;28;20036;-82
2022/05/07 06:56:24;;;;;;;38.90;18.90;;;;;;;17.39;69.83;102297.00;5033819;28;20049;-83
2022/05/07 06:58:49;;;;;;;37.38;19.25;;;;;;;18.07;67.15;102305.47;5034209;28;20115;-84
2022/05/07 07:01:15;;;;;;;37.17;18.33;;;;;;;18.68;64.91;102305.25;5042026;28;20055;-83
2022/05/07 07:03:40;;;;;;;37.08;18.20;;;;;;;19.25;61.22;102304.94;5030585;28;20132;-82
2022/05/07 07:06:06;;;;;;;38.92;17.90;;;;;;;19.60;58.19;102301.03;5030948;28;20412;-83
2022/05/07 07:08:31;;;;;;;37.05;18.40;;;;;;;19.90;61.45;102301.66;5030765;28;20276;-83
2022/05/07 07:10:57;;;;;;;35.17;18.42;;;;;;;20.19;56.36;102303.13;5031823;28;20024;-83
2022/05/07 07:13:22;;;;;;;36.03;17.85;;;;;;;20.45;58.13;102306.44;5028640;28;20041;-83
2022/05/07 07:15:48;;;;;;;33.92;18.50;;;;;;;20.71;56.61;102297.41;5035223;28;20021;-83
2022/05/07 07:18:13;;;;;;;34.55;17.60;;;;;;;21.08;56.74;102304.59;5027425;28;20025;-83
2022/05/07 07:20:41;;;;;;;32.70;18.10;;;;;;;21.39;52.62;102308.53;5031578;28;20388;-83
2022/05/07 07:23:06;;;;;;;33.67;16.77;;;;;;;21.66;54.61;102307.25;5029197;28;20284;-83
2022/05/07 07:25:31;;;;;;;34.25;17.50;;;;;;;21.73;54.08;102306.03;5031613;28;20028;-83
2022/05/07 07:27:57;;;;;;;33.78;18.40;;;;;;;21.58;52.09;102302.31;5030772;28;20036;-83
2022/05/07 07:30:22;;;;;;;32.38;17.88;;;;;;;21.43;50.48;102302.16;5031451;28;20029;-83
2022/05/07 07:32:47;;;;;;;31.38;17.90;;;;;;;21.54;55.24;102308.69;5029245;28;20018;-83
2022/05/07 07:35:13;;;;;;;32.93;16.97;;;;;;;21.73;52.64;102302.53;5029942;28;20052;-83
2022/05/07 07:37:38;;;;;;;31.70;17.17;;;;;;;22.09;52.01;102308.75;5036537;28;20311;-83
2022/05/07 07:40:04;;;;;;;31.63;16.33;;;;;;;22.37;47.65;102309.09;5038940;28;20501;-84
2022/05/07 07:42:30;;;;;;;32.63;16.83;;;;;;;22.61;50.76;102307.00;5038399;28;20160;-83
2022/05/07 07:47:59;;;;;;;31.23;16.48;;;;;;;23.45;47.93;102302.63;5030309;28;20048;-84
2022/05/07 07:50:29;;;;;;;30.55;15.77;;;;;;;23.92;48.50;102302.66;5031134;28;20656;-85
2022/05/07 07:52:59;;;;;;;30.35;17.00;;;;;;;24.37;45.70;102302.69;5027871;28;20136;-84
2022/05/07 07:55:24;;;;;;;33.03;16.70;;;;;;;25.00;43.58;102297.19;5042581;28;20049;-83
2022/05/07 07:57:59;;;;;;;32.10;17.08;;;;;;;25.62;43.39;102294.25;5037347;28;20051;-85
2022/05/07 08:00:26;;;;;;;32.72;17.15;;;;;;;25.99;42.74;102288.28;5017832;28;20036;-84
2022/05/07 08:02:56;;;;;;;31.95;17.17;;;;;;;26.51;42.71;102292.78;5023500;28;20033;-83
2022/05/07 08:05:27;;;;;;;28.77;16.70;;;;;;;27.09;41.23;102297.66;5031127;28;20553;-84
2022/05/07 08:13:22;;;;;;;33.30;17.73;;;;;;;27.64;38.18;102297.25;5030805;28;20450;-83
2022/05/07 08:15:48;;;;;;;32.20;18.52;;;;;;;27.43;38.21;102301.44;5028456;28;20014;-83
2022/05/07 08:18:14;;;;;;;31.33;17.65;;;;;;;26.87;38.77;102297.41;5027673;28;20068;-83
2022/05/07 08:20:43;;;;;;;31.58;18.33;;;;;;;26.54;39.15;102296.13;5032349;28;20029;-83
2022/05/07 08:23:10;;;;;;;32.75;19.73;;;;;;;26.35;38.49;102293.81;5021294;28;20033;-83
2022/05/07 08:25:36;;;;;;;37.40;18.98;;;;;;;26.35;40.42;102299.13;5028046;28;20053;-83
2022/05/07 08:28:02;;;;;;;36.92;20.27;;;;;;;26.31;38.49;102295.00;5031379;28;20037;-84
2022/05/07 08:30:28;;;;;;;33.95;20.50;;;;;;;26.14;38.96;102297.00;5029923;28;20039;-83
2022/05/07 08:32:53;;;;;;;35.47;20.08;;;;;;;26.32;41.17;102295.84;5028829;28;20029;-82
2022/05/07 08:35:18;;;;;;;33.77;20.67;;;;;;;26.25;38.24;102300.72;5019138;28;20522;-81
2022/05/07 08:37:44;;;;;;;32.55;19.25;;;;;;;26.10;40.45;102303.50;5028915;28;20025;-80
2022/05/07 08:40:12;;;;;;;38.05;21.05;;;;;;;25.71;38.80;102310.47;5029617;28;20113;-80
2022/05/07 08:42:38;;;;;;;38.17;21.98;;;;;;;25.48;38.42;102305.69;5033845;28;20541;-80
2022/05/07 08:45:04;;;;;;;39.08;21.67;;;;;;;25.29;40.18;102303.34;5029465;28;20034;-80
2022/05/07 08:47:30;;;;;;;41.22;21.98;;;;;;;25.42;40.28;102298.13;5028372;28;20035;-80
2022/05/07 08:49:55;;;;;;;37.73;21.33;;;;;;;25.70;39.83;102305.22;5027918;28;20030;-80
2022/05/07 08:52:22;;;;;;;36.08;20.45;;;;;;;26.18;39.69;102298.53;5029195;28;20352;-80
2022/05/07 08:54:48;;;;;;;39.63;21.50;;;;;;;26.19;40.31;102298.44;5027917;28;20458;-80
2022/05/07 08:57:14;;;;;;;38.40;20.95;;;;;;;26.20;39.88;102292.13;5028007;28;20487;-80
2022/05/07 08:59:40;;;;;;;38.72;21.65;;;;;;;25.91;39.96;102301.19;5030134;28;20021;-79
2022/05/07 09:02:06;;;;;;;42.05;22.35;;;;;;;25.71;38.52;102291.84;5026161;28;20047;-80
2022/05/07 09:04:32;;;;;;;39.78;21.90;;;;;;;25.56;40.09;102295.47;5034259;28;20100;-80
2022/05/07 09:07:01;;;;;;;39.90;21.27;;;;;;;25.41;39.78;102296.41;5030559;28;20484;-80
2022/05/07 09:09:30;;;;;;;37.90;20.58;;;;;;;25.56;41.70;102306.94;5025480;28;20025;-79
2022/05/07 09:11:56;;;;;;;42.10;22.52;;;;;;;25.59;38.35;102300.59;5031319;28;20083;-80
2022/05/07 09:14:28;;;;;;;36.17;21.05;;;;;;;25.51;40.20;102295.75;5023560;28;20022;-80
2022/05/07 09:16:59;;;;;;;37.80;22.75;;;;;;;25.20;40.75;102298.59;5026642;28;20086;-80
2022/05/07 09:19:27;;;;;;;44.22;21.88;;;;;;;24.94;39.44;102300.22;5017699;28;20029;-80
2022/05/07 09:22:04;;;;;;;35.58;19.02;;;;;;;24.69;41.03;102300.81;5029039;28;20040;-79
2022/05/07 09:24:29;;;;;;;33.13;17.80;;;;;;;24.65;40.44;102291.31;5029562;28;20029;-79
2022/05/07 09:26:57;;;;;;;29.50;16.58;;;;;;;24.61;40.67;102291.59;5030426;28;20033;-79
2022/05/07 09:29:26;;;;;;;36.45;18.70;;;;;;;24.56;40.63;102291.88;5026050;28;20029;-79
2022/05/07 09:31:53;;;;;;;36.38;20.33;;;;;;;24.51;39.59;102287.78;5027215;28;20404;-79
2022/05/07 09:37:16;;;;;;;27.83;15.15;;;;;;;24.42;39.75;102294.50;5029319;28;20092;-79
2022/05/07 09:39:47;;;;;;;33.40;16.48;;;;;;;24.25;37.46;102298.13;5024260;28;20437;-79
2022/05/07 09:42:16;;;;;;;26.05;14.07;;;;;;;24.16;39.36;102295.94;5028725;28;20026;-79
2022/05/07 09:44:43;;;;;;;25.90;12.60;;;;;;;24.31;38.76;102303.06;5027321;28;20388;-79
2022/05/07 09:47:12;;;;;;;25.88;13.07;;;;;;;24.38;39.70;102300.91;5027916;28;20031;-79
2022/05/07 09:50:20;;;;;;;24.98;13.70;;;;;;;24.54;38.17;102300.88;5022195;28;20021;-80
2022/05/07 09:52:27;;;;;;;30.40;14.38;;;;;;;24.54;37.88;102312.31;5024292;28;20041;-80
2022/05/07 09:57:38;;;;;;;20.40;11.27;;;;;;;24.51;39.01;102295.72;5023813;28;20044;-79
2022/05/07 10:00:07;;;;;;;22.33;10.70;;;;;;;24.48;38.01;102298.59;5032211;28;20017;-79
2022/05/07 10:03:10;;;;;;;20.25;10.32;;;;;;;24.64;41.06;102296.72;5029675;28;20043;-79
2022/05/07 10:05:54;;;;;;;23.13;11.98;;;;;;;24.68;39.72;102306.22;5029026;28;20034;-80
2022/05/07 10:08:46;;;;;;;26.35;12.77;;;;;;;24.71;40.78;102300.69;5031870;28;20021;-81
2022/05/07 10:11:13;;;;;;;25.35;13.85;;;;;;;24.49;38.29;102292.34;5035437;28;20029;-81
2022/05/07 10:13:39;;;;;;;27.90;13.75;;;;;;;24.53;39.57;102299.16;5030594;28;20036;-80
2022/05/07 10:16:05;;;;;;;31.88;14.02;;;;;;;24.64;38.75;102289.59;5032384;28;20026;-80
2022/05/07 10:18:41;;;;;;;24.48;12.32;;;;;;;24.79;39.82;102295.81;5031100;28;20033;-80
2022/05/07 10:21:17;;;;;;;24.92;12.52;;;;;;;24.89;39.56;102296.09;5031104;28;20033;-80
2022/05/07 10:23:53;;;;;;;23.60;12.63;;;;;;;24.97;40.23;102286.78;5037033;28;20033;-80
2022/05/07 10:26:20;;;;;;;31.95;16.02;;;;;;;24.89;37.88;102286.34;5028483;28;20168;-80
2022/05/07 10:28:46;;;;;;;30.05;15.02;;;;;;;24.80;39.95;102282.44;5031120;28;20503;-80
2022/05/07 10:31:17;;;;;;;31.45;15.38;;;;;;;24.72;40.85;102282.06;5032224;28;20103;-80
2022/05/07 10:33:42;;;;;;;32.47;15.15;;;;;;;24.78;40.34;102278.16;5024697;28;20018;-80
2022/05/07 10:36:09;;;;;;;29.63;13.95;;;;;;;24.69;41.10;102273.44;5022235;28;20037;-80
2022/05/07 10:38:37;;;;;;;28.73;15.10;;;;;;;24.70;39.99;102280.47;5023920;28;20038;-80
2022/05/07 10:41:13;;;;;;;27.73;14.93;;;;;;;24.54;40.40;102283.16;5022556;28;20091;-80
2022/05/07 10:43:42;;;;;;;34.75;15.90;;;;;;;24.40;39.37;102268.06;5026814;28;20503;-80
2022/05/07 10:46:12;;;;;;;26.95;14.15;;;;;;;24.21;39.71;102280.69;5025510;28;20521;-80
2022/05/07 10:48:52;;;;;;;31.10;15.48;;;;;;;23.91;39.81;102282.41;5025652;28;20475;-81
2022/05/07 10:51:26;;;;;;;28.60;15.18;;;;;;;23.42;40.45;102281.59;5041726;28;20033;-80
2022/05/07 10:53:51;;;;;;;29.35;14.40;;;;;;;23.17;41.86;102285.56;5022002;28;20472;-80
2022/05/07 10:56:20;;;;;;;32.30;15.52;;;;;;;22.85;41.67;102278.50;5028188;28;21683;-80
2022/05/07 10:58:49;;;;;;;31.17;14.85;;;;;;;23.07;43.19;102278.19;5030081;28;20084;-80
2022/05/07 11:01:16;;;;;;;29.23;14.27;;;;;;;23.15;42.13;102273.34;5027079;28;20049;-80
2022/05/07 11:03:41;;;;;;;25.70;13.38;;;;;;;23.24;41.39;102267.59;5044828;28;20038;-80
2022/05/07 11:06:06;;;;;;;28.13;14.10;;;;;;;23.20;40.93;102266.06;5031567;28;20030;-80
2022/05/07 11:08:32;;;;;;;31.98;15.15;;;;;;;23.18;41.08;102274.06;5030000;28;20037;-80
2022/05/07 11:11:07;;;;;;;28.48;14.13;;;;;;;23.12;42.34;102268.25;5029541;28;20116;-80
2022/05/07 11:13:43;;;;;;;31.70;15.60;;;;;;;23.05;41.91;102273.00;5025001;28;20033;-80
2022/05/07 11:16:08;;;;;;;29.52;14.50;;;;;;;23.01;42.15;102265.31;5030146;28;20029;-80
2022/05/07 11:18:34;;;;;;;30.77;13.83;;;;;;;22.78;43.67;102270.03;5028570;28;20385;-80
2022/05/07 11:21:08;;;;;;;35.78;14.93;;;;;;;22.93;42.97;102276.28;5028431;28;20370;-80
2022/05/07 11:23:39;;;;;;;26.90;13.63;;;;;;;23.05;41.70;102264.22;5029577;28;20108;-80
2022/05/07 11:26:16;;;;;;;32.22;14.57;;;;;;;22.97;41.81;102272.56;5031309;28;20457;-80
2022/05/07 11:28:43;;;;;;;27.17;12.52;;;;;;;23.07;43.34;102260.53;5026364;28;20440;-80
2022/05/07 11:31:10;;;;;;;26.27;13.57;;;;;;;23.26;43.58;102262.22;5027404;28;20103;-80
2022/05/07 11:33:36;;;;;;;22.35;11.30;;;;;;;23.65;40.92;102256.53;5029096;28;20029;-80
2022/05/07 11:36:06;;;;;;;21.75;10.65;;;;;;;24.25;40.83;102255.72;5031182;28;20028;-80